McBrides, MI (48852)

1:42 AM EST on February 12, 2016 (GMT -0500)
3 miles East of Stanton | | Change Station
CLOSE
Current Station
Personal Weather Station
Location: Stanton, MI
Elevation: 915 ft
Nearby Weather Stations

Elev 915 ft 43.29 °N, 85.02 °W | Updated 38 seconds ago

Overcast
Overcast
13.3 °F
Feels Like 13 °F
N
2.7
Wind Variable Wind from West
Gusts 4.9 mph

Today
High -- | Low -- °F
--% Chance of Precip.
Yesterday
High -- | Low -- °F
Precip. -- in
Pressure 30.15 in
Visibility 10.0 miles
Clouds Overcast 9000 ft
Windchill 13 °F
Dew Point 3 °F
Humidity 63%
Rainfall 0.00 in
Snow Depth Not available.
7:43 AM 6:06 PM
Waxing Crescent, 18% visible
METAR KAMN 120632Z AUTO 22005KT 10SM OVC090 M09/M12 A3015 RMK AO2 T10951123
Pressure 30.15 in
Visibility 10.0 miles
Clouds Overcast 9000 ft
Windchill 13 °F
Dew Point 3 °F
Humidity 63%
Rainfall 0.00 in
Snow Depth Not available.
7:43 AM 6:06 PM
Waxing Crescent, 18% visible
METAR KAMN 120632Z AUTO 22005KT 10SM OVC090 M09/M12 A3015 RMK AO2 T10951123

10-Day Weather Forecast

Almanac

Astronomy

Feb. 12, 2016 Rise Set
Actual Time
Civil Twilight
Nautical Twilight
Astronomical Twilight
Moon
Length of Visible Light
Length of Day
Tomorrow will be .
, % of the Moon is Illuminated

Today's Extremes

State Highs State Lows

Community

WunderPhotos

Upload Photos

1,892,276 photos uploaded!

WunderBlog® & News

Nearby

Air Quality

  Air Quality AQ Index Pollutant
Not available.

Snow Depth

Station Depth Elevation

Earthquake Activity

City Distance Mag. Time & Date
Minimum magnitude displayed is 2.5.

Coastal Water Temperatures

Place Temperature

Stations

Nearby Weather Stations

Station Location Temp. Windchill Dew Point Humidity Wind Precip. Elev Updated Type
                   

Watches & Warnings

There are currently no watches in effect.